Time;durP1;ratioP1;P1;durP2;ratioP2;P2;SDS_P1;SDS_P2;PMS_P1;PMS_P2;Temp;Humidity;BMP_temperature;BMP_pressure;BME280_temperature;BME280_humidity;BME280_pressure;Samples;Min_cycle;Max_cycle;Signal;HPM_P1;HPM_P2
2023/03/07 00:00:39;;;;;;;21.87;11.97;;;;;;;2.28;81.93;99049.91;4954479;28;20213;-81
2023/03/07 00:03:06;;;;;;;21.90;12.40;;;;;;;2.28;81.95;99048.13;4946855;28;20553;-82
2023/03/07 00:05:33;;;;;;;23.13;13.77;;;;;;;2.31;82.06;99049.75;4952660;28;20615;-82
2023/03/07 00:07:59;;;;;;;19.57;13.13;;;;;;;2.35;82.13;99046.00;4955621;28;20689;-82
2023/03/07 00:10:26;;;;;;;24.77;13.17;;;;;;;2.32;81.54;99033.91;4954600;28;20598;-82
2023/03/07 00:12:53;;;;;;;18.73;11.03;;;;;;;2.33;82.00;99022.44;4951449;28;20216;-82
2023/03/07 00:15:20;;;;;;;24.10;12.47;;;;;;;2.35;81.57;99014.47;4948664;28;20703;-81
2023/03/07 00:17:46;;;;;;;21.40;12.30;;;;;;;2.37;81.57;99012.63;4950324;28;20220;-82
2023/03/07 00:20:14;;;;;;;21.03;11.77;;;;;;;2.40;81.99;99015.06;4955865;28;20227;-82
2023/03/07 00:22:41;;;;;;;21.70;12.97;;;;;;;2.39;81.59;98997.63;4951429;28;20277;-82
2023/03/07 00:25:08;;;;;;;22.07;12.30;;;;;;;2.39;81.94;98989.72;4953583;28;20239;-81
2023/03/07 00:27:36;;;;;;;20.13;12.03;;;;;;;2.40;81.76;98981.75;4953550;28;20680;-82
2023/03/07 00:30:04;;;;;;;26.30;14.03;;;;;;;2.40;81.94;98973.88;4960859;28;20297;-82
2023/03/07 00:32:31;;;;;;;27.07;14.63;;;;;;;2.38;82.58;98978.38;4955017;28;20204;-81
2023/03/07 00:34:59;;;;;;;25.20;12.97;;;;;;;2.40;82.01;98962.53;4954898;28;20271;-81
2023/03/07 00:37:26;;;;;;;22.60;12.83;;;;;;;2.38;82.77;98961.75;4952675;28;20234;-81
2023/03/07 00:39:53;;;;;;;21.50;11.67;;;;;;;2.40;82.66;98955.50;4954562;28;20575;-81
2023/03/07 00:42:19;;;;;;;22.23;12.47;;;;;;;2.43;82.44;98946.59;4942703;28;20209;-81
2023/03/07 00:44:48;;;;;;;22.23;12.17;;;;;;;2.43;83.35;98942.19;4952178;28;20228;-82
2023/03/07 00:47:16;;;;;;;20.70;11.93;;;;;;;2.47;83.37;98942.03;4950738;28;20261;-83
2023/03/07 00:49:43;;;;;;;20.60;11.53;;;;;;;2.50;83.54;98929.56;4955756;28;20220;-82
2023/03/07 00:52:09;;;;;;;22.93;13.23;;;;;;;2.47;83.07;98926.25;4952820;28;20734;-82
2023/03/07 00:54:35;;;;;;;22.10;13.00;;;;;;;2.50;84.13;98905.91;4950674;28;20232;-82
2023/03/07 00:57:02;;;;;;;21.77;11.53;;;;;;;2.57;84.03;98907.22;4960478;28;20209;-82
2023/03/07 00:59:28;;;;;;;18.23;10.00;;;;;;;2.60;84.46;98899.16;4957205;28;20209;-82
2023/03/07 01:01:55;;;;;;;23.17;12.87;;;;;;;2.57;83.83;98894.09;4942273;28;20631;-82
2023/03/07 01:04:23;;;;;;;14.83;8.07;;;;;;;2.59;84.39;98886.97;4954300;28;20706;-83
2023/03/07 01:06:49;;;;;;;20.37;10.67;;;;;;;2.63;84.79;98882.38;4947623;28;20683;-83
2023/03/07 01:09:16;;;;;;;18.77;11.43;;;;;;;2.63;84.11;98893.72;4939857;28;20595;-82
2023/03/07 01:11:42;;;;;;;18.77;11.27;;;;;;;2.57;84.67;98880.09;4949373;29;20737;-82
2023/03/07 01:14:10;;;;;;;19.60;12.20;;;;;;;2.57;85.06;98883.56;4945374;28;20216;-81
2023/03/07 01:16:38;;;;;;;20.20;11.97;;;;;;;2.58;85.70;98879.16;4949284;28;20221;-82
2023/03/07 01:19:06;;;;;;;20.97;11.73;;;;;;;2.54;86.08;98862.72;4952925;28;20235;-82
2023/03/07 01:21:36;;;;;;;18.50;12.37;;;;;;;2.53;86.17;98855.78;4954015;28;20755;-82
2023/03/07 01:24:03;;;;;;;17.27;10.50;;;;;;;2.56;86.14;98854.75;4958632;28;20295;-82
2023/03/07 01:26:31;;;;;;;21.70;11.13;;;;;;;2.56;86.02;98849.50;4954068;28;20244;-82
2023/03/07 01:28:59;;;;;;;21.17;12.23;;;;;;;2.53;86.12;98855.78;4955179;28;20220;-82
2023/03/07 01:31:28;;;;;;;21.53;11.73;;;;;;;2.59;86.38;98850.16;4958867;28;20272;-82
2023/03/07 01:33:55;;;;;;;19.53;10.53;;;;;;;2.56;87.04;98836.34;4953238;28;20272;-82
2023/03/07 01:36:28;;;;;;;21.17;12.60;;;;;;;2.55;86.53;98827.63;4961666;28;20236;-82
2023/03/07 01:38:59;;;;;;;17.80;8.90;;;;;;;2.51;87.52;98820.03;4949610;28;20296;-82
2023/03/07 01:41:28;;;;;;;19.87;10.93;;;;;;;2.48;88.00;98825.47;4955452;28;20196;-81
2023/03/07 01:43:55;;;;;;;17.83;9.80;;;;;;;2.54;88.09;98812.78;4954890;28;20671;-82
2023/03/07 01:46:33;;;;;;;19.40;11.13;;;;;;;2.53;87.28;98808.47;4956127;28;20248;-82
2023/03/07 01:49:02;;;;;;;19.57;9.03;;;;;;;2.54;88.39;98806.69;4957682;28;20205;-82
2023/03/07 01:51:29;;;;;;;19.03;11.30;;;;;;;2.50;88.52;98792.91;4958681;28;20240;-81
2023/03/07 01:54:00;;;;;;;13.70;8.97;;;;;;;2.53;88.34;98803.22;4953627;28;20212;-82
2023/03/07 01:56:27;;;;;;;16.30;9.73;;;;;;;2.44;89.88;98798.53;4956521;28;20229;-81
2023/03/07 01:58:55;;;;;;;15.57;10.17;;;;;;;2.43;89.54;98794.22;4953334;28;20216;-81
2023/03/07 02:01:22;;;;;;;17.20;9.47;;;;;;;2.46;90.37;98788.78;4954833;28;20553;-81
2023/03/07 02:03:53;;;;;;;15.23;8.80;;;;;;;2.45;90.20;98781.84;4952071;28;20216;-81
2023/03/07 02:06:21;;;;;;;16.63;9.10;;;;;;;2.43;90.48;98775.81;4954223;28;20260;-81
2023/03/07 02:08:49;;;;;;;15.00;9.37;;;;;;;2.38;91.31;98786.59;4956682;28;20216;-81
2023/03/07 02:11:17;;;;;;;14.00;8.57;;;;;;;2.38;91.51;98777.88;4951322;28;20212;-81
2023/03/07 02:13:43;;;;;;;11.97;7.53;;;;;;;2.40;91.84;98782.09;4953182;28;20205;-82
2023/03/07 02:16:10;;;;;;;13.47;9.23;;;;;;;2.39;91.87;98772.53;4947880;28;20244;-82
2023/03/07 02:18:43;;;;;;;13.17;7.90;;;;;;;2.39;92.35;98771.69;4948570;28;20590;-83
2023/03/07 02:21:18;;;;;;;17.23;9.40;;;;;;;2.35;92.28;98770.16;4952678;28;20228;-83
2023/03/07 02:23:53;;;;;;;16.40;9.17;;;;;;;2.31;93.04;98771.31;4947261;28;20204;-82
2023/03/07 02:26:34;;;;;;;12.90;8.70;;;;;;;2.32;93.08;98771.22;4953181;28;20227;-82
2023/03/07 02:29:02;;;;;;;12.33;8.27;;;;;;;2.30;93.26;98770.47;4954513;28;20215;-82
2023/03/07 02:31:28;;;;;;;14.10;8.87;;;;;;;2.33;93.10;98764.19;4954240;28;20209;-82
2023/03/07 02:33:55;;;;;;;13.00;7.90;;;;;;;2.34;93.20;98768.47;4952712;28;20209;-82
2023/03/07 02:36:25;;;;;;;13.57;7.87;;;;;;;2.31;93.34;98766.91;4950996;28;20610;-81
2023/03/07 02:38:54;;;;;;;14.87;8.53;;;;;;;2.30;93.77;98761.75;4952662;28;20205;-82
2023/03/07 02:41:25;;;;;;;12.63;7.80;;;;;;;2.26;94.06;98770.72;4949426;28;20240;-82
2023/03/07 02:43:53;;;;;;;11.00;6.77;;;;;;;2.24;95.13;98769.97;4949332;28;20209;-82
2023/03/07 02:46:20;;;;;;;11.53;6.63;;;;;;;2.26;95.22;98766.31;4951560;28;20248;-82
2023/03/07 02:48:46;;;;;;;13.80;8.30;;;;;;;2.25;94.77;98775.13;4952972;28;20240;-81
2023/03/07 02:51:13;;;;;;;14.17;8.33;;;;;;;2.22;95.92;98771.84;4948052;28;20236;-82
2023/03/07 02:53:39;;;;;;;11.97;8.27;;;;;;;2.20;95.96;98773.72;4951596;28;20209;-82
2023/03/07 02:56:07;;;;;;;11.47;7.90;;;;;;;2.17;96.33;98776.50;4952297;28;20687;-82
2023/03/07 02:58:33;;;;;;;11.53;8.00;;;;;;;2.19;96.15;98777.28;4942942;28;20298;-82
2023/03/07 03:01:01;;;;;;;11.83;7.30;;;;;;;2.21;96.42;98764.91;4953009;28;20220;-82
2023/03/07 03:03:27;;;;;;;11.53;6.83;;;;;;;2.21;96.43;98759.63;4944818;28;20208;-82
2023/03/07 03:05:54;;;;;;;10.37;6.57;;;;;;;2.24;96.24;98762.09;4949363;28;20233;-82
2023/03/07 03:08:20;;;;;;;12.13;7.80;;;;;;;2.22;97.23;98758.72;4958127;28;20582;-82
2023/03/07 03:10:52;;;;;;;11.13;6.97;;;;;;;2.22;96.67;98743.78;4953039;28;20213;-82
2023/03/07 03:13:19;;;;;;;12.10;7.63;;;;;;;2.22;97.42;98750.81;4943349;28;20208;-82
2023/03/07 03:15:45;;;;;;;11.50;7.53;;;;;;;2.25;96.87;98748.88;4959548;28;20264;-82
2023/03/07 03:18:13;;;;;;;11.30;6.97;;;;;;;2.27;96.89;98754.03;4952179;28;20213;-82
2023/03/07 03:20:40;;;;;;;12.60;7.30;;;;;;;2.24;97.50;98746.34;4955405;28;20216;-82
2023/03/07 03:23:06;;;;;;;12.13;7.20;;;;;;;2.26;98.00;98745.31;4946536;28;20586;-82
2023/03/07 03:25:33;;;;;;;11.23;7.07;;;;;;;2.30;97.75;98738.09;4949679;28;20599;-81
2023/03/07 03:27:59;;;;;;;10.00;6.83;;;;;;;2.33;97.97;98737.91;4949161;28;20216;-81
2023/03/07 03:30:27;;;;;;;9.53;6.40;;;;;;;2.32;97.43;98733.59;4948133;28;20205;-81
2023/03/07 03:32:55;;;;;;;10.90;6.93;;;;;;;2.29;98.12;98737.25;4951992;28;20204;-83
2023/03/07 03:35:23;;;;;;;9.90;6.97;;;;;;;2.31;98.22;98739.78;4956503;28;20233;-83
2023/03/07 03:37:49;;;;;;;10.27;6.10;;;;;;;2.30;97.96;98736.31;4945529;28;20213;-82
2023/03/07 03:40:16;;;;;;;10.27;6.77;;;;;;;2.33;98.01;98735.28;4944527;28;20213;-81
2023/03/07 03:42:43;;;;;;;10.47;6.63;;;;;;;2.38;98.37;98747.19;4954089;28;20213;-81
2023/03/07 03:45:11;;;;;;;8.87;5.83;;;;;;;2.38;98.74;98736.69;4949604;28;20284;-82
2023/03/07 03:47:37;;;;;;;9.43;6.07;;;;;;;2.38;98.96;98725.31;4949110;28;20217;-82
2023/03/07 03:50:05;;;;;;;8.00;5.73;;;;;;;2.35;98.69;98734.22;4945826;28;20213;-82
2023/03/07 03:52:35;;;;;;;8.47;5.80;;;;;;;2.38;99.20;98734.06;4944673;28;20214;-82
2023/03/07 03:55:01;;;;;;;8.23;5.33;;;;;;;2.39;98.50;98733.13;4944034;28;20230;-82
2023/03/07 03:57:28;;;;;;;8.20;5.27;;;;;;;2.41;98.36;98726.00;4943826;28;20209;-82
2023/03/07 03:59:55;;;;;;;8.30;5.70;;;;;;;2.42;99.15;98730.31;4951182;28;20305;-81
2023/03/07 04:02:22;;;;;;;8.63;6.07;;;;;;;2.41;98.54;98714.63;4948141;28;20216;-82
2023/03/07 04:04:48;;;;;;;8.17;5.60;;;;;;;2.47;99.14;98727.41;4954780;28;20660;-81
2023/03/07 04:07:14;;;;;;;8.07;5.80;;;;;;;2.48;98.92;98730.88;4947128;28;20206;-82
2023/03/07 04:09:42;;;;;;;9.40;5.40;;;;;;;2.49;98.65;98727.31;4950878;28;20209;-82
2023/03/07 04:12:09;;;;;;;8.77;6.00;;;;;;;2.49;98.88;98712.41;4951290;28;20209;-81
2023/03/07 04:14:35;;;;;;;8.57;5.97;;;;;;;2.52;98.94;98719.22;4946821;28;20224;-82
2023/03/07 04:17:02;;;;;;;9.17;6.17;;;;;;;2.55;98.72;98727.78;4947222;28;20639;-82
2023/03/07 04:19:28;;;;;;;8.73;5.77;;;;;;;2.58;98.42;98717.06;4942246;28;20262;-82
2023/03/07 04:21:55;;;;;;;10.33;6.20;;;;;;;2.57;98.75;98714.53;4955057;28;20212;-82
2023/03/07 04:24:21;;;;;;;9.00;6.43;;;;;;;2.60;98.97;98717.00;4951030;28;20204;-81
2023/03/07 04:26:49;;;;;;;9.97;6.17;;;;;;;2.62;99.39;98705.44;4948833;28;20205;-82
2023/03/07 04:29:16;;;;;;;8.17;5.23;;;;;;;2.70;98.65;98699.69;4949378;28;20209;-82
2023/03/07 04:31:42;;;;;;;8.47;6.03;;;;;;;2.71;99.26;98701.38;4952494;28;20623;-83
2023/03/07 04:34:09;;;;;;;10.17;6.80;;;;;;;2.70;98.79;98711.06;4951885;28;20217;-82
2023/03/07 04:36:35;;;;;;;9.77;7.00;;;;;;;2.73;98.81;98705.59;4954353;28;20802;-82
2023/03/07 04:39:02;;;;;;;9.70;7.03;;;;;;;2.73;98.80;98700.34;4959200;28;20566;-82
2023/03/07 04:41:28;;;;;;;9.17;7.10;;;;;;;2.77;98.70;98680.81;4956725;28;20224;-82
2023/03/07 04:43:56;;;;;;;9.57;6.27;;;;;;;2.76;99.62;98684.41;4951216;28;20221;-82
2023/03/07 04:46:23;;;;;;;10.00;7.13;;;;;;;2.78;98.85;98679.88;4952250;28;20220;-82
2023/03/07 04:48:49;;;;;;;9.93;7.27;;;;;;;2.81;98.90;98676.22;4948010;28;20209;-82
2023/03/07 04:51:15;;;;;;;9.77;7.13;;;;;;;2.83;99.19;98676.97;4954410;28;20208;-81
2023/03/07 04:53:42;;;;;;;10.30;7.07;;;;;;;2.86;98.70;98673.31;4949162;28;20213;-81
2023/03/07 04:56:10;;;;;;;9.00;7.10;;;;;;;2.87;99.42;98674.97;4951496;28;20243;-82
2023/03/07 04:58:37;;;;;;;9.77;7.47;;;;;;;2.85;98.86;98666.38;4948637;28;20217;-81
2023/03/07 05:01:05;;;;;;;12.33;7.00;;;;;;;2.88;99.29;98666.16;4951007;28;20209;-81
2023/03/07 05:03:33;;;;;;;9.23;6.93;;;;;;;2.93;98.50;98662.28;4947284;28;20213;-81
2023/03/07 05:06:01;;;;;;;11.17;8.17;;;;;;;2.95;98.96;98662.19;4951157;28;20221;-82
2023/03/07 05:08:28;;;;;;;9.23;7.30;;;;;;;2.97;99.09;98660.31;4956367;28;20208;-82
2023/03/07 05:10:54;;;;;;;8.90;6.83;;;;;;;2.98;98.75;98656.75;4945187;28;20672;-83
2023/03/07 05:13:21;;;;;;;10.50;7.80;;;;;;;2.98;98.78;98656.75;4947346;28;20696;-82
2023/03/07 05:15:51;;;;;;;10.30;7.63;;;;;;;3.00;98.59;98657.50;4954061;28;20610;-81
2023/03/07 05:18:19;;;;;;;10.47;8.40;;;;;;;2.98;98.25;98649.72;4953495;28;20212;-82
2023/03/07 05:20:45;;;;;;;12.10;7.83;;;;;;;3.04;98.14;98654.59;4951263;28;20897;-82
2023/03/07 05:23:12;;;;;;;10.30;7.57;;;;;;;3.07;98.09;98654.34;4950709;28;20205;-82
2023/03/07 05:25:38;;;;;;;10.93;7.90;;;;;;;3.07;98.25;98654.34;4954149;28;20614;-82
2023/03/07 05:28:05;;;;;;;9.13;6.90;;;;;;;3.11;98.11;98652.38;4951443;28;20210;-82
2023/03/07 05:30:31;;;;;;;10.73;7.20;;;;;;;3.13;98.11;98651.34;4949478;28;20220;-82
2023/03/07 05:32:58;;;;;;;10.27;7.47;;;;;;;3.14;97.78;98646.94;4948993;28;20216;-82
2023/03/07 05:35:26;;;;;;;9.20;6.93;;;;;;;3.15;97.40;98659.13;4951429;28;20220;-81
2023/03/07 05:37:52;;;;;;;9.23;6.70;;;;;;;3.15;97.88;98664.41;4942504;28;20221;-81
2023/03/07 05:40:19;;;;;;;10.17;5.90;;;;;;;3.17;98.37;98666.94;4946133;28;20584;-81
2023/03/07 05:42:46;;;;;;;8.70;6.47;;;;;;;3.19;98.15;98668.53;4950630;28;20213;-81
2023/03/07 05:45:13;;;;;;;9.23;6.60;;;;;;;3.21;98.16;98674.53;4947749;28;20225;-83
2023/03/07 05:47:39;;;;;;;11.20;8.07;;;;;;;3.22;97.57;98681.47;4953253;28;20660;-82
2023/03/07 05:50:08;;;;;;;11.67;7.20;;;;;;;3.24;97.74;98689.25;4952860;28;20220;-82
2023/03/07 05:52:35;;;;;;;9.10;6.97;;;;;;;3.24;97.61;98694.50;4943592;28;20236;-82
2023/03/07 05:55:03;;;;;;;10.47;7.80;;;;;;;3.23;97.62;98698.94;4954998;28;20608;-83
2023/03/07 05:57:29;;;;;;;10.53;8.07;;;;;;;3.21;97.18;98697.38;4947582;28;20727;-82
2023/03/07 05:59:56;;;;;;;10.57;7.87;;;;;;;3.17;98.00;98704.59;4949408;28;20209;-82
2023/03/07 06:02:22;;;;;;;9.30;7.40;;;;;;;3.13;97.88;98706.56;4952171;28;20209;-83
2023/03/07 06:04:49;;;;;;;6.90;5.10;;;;;;;3.06;97.38;98705.28;4952470;28;20699;-82
2023/03/07 06:07:15;;;;;;;5.50;3.93;;;;;;;3.03;97.13;98715.16;4948861;28;20209;-82
2023/03/07 06:09:43;;;;;;;4.57;3.43;;;;;;;2.96;96.97;98711.22;4944374;28;20217;-82
2023/03/07 06:12:11;;;;;;;4.23;3.10;;;;;;;2.90;97.01;98708.97;4953156;28;20671;-82
2023/03/07 06:14:37;;;;;;;3.43;2.77;;;;;;;2.82;97.24;98719.97;4950058;28;20221;-82
2023/03/07 06:17:04;;;;;;;3.50;2.70;;;;;;;2.77;96.74;98717.63;4952824;28;20233;-82
2023/03/07 06:19:31;;;;;;;4.20;3.17;;;;;;;2.72;97.33;98722.31;4944885;28;20224;-83
2023/03/07 06:21:57;;;;;;;3.97;3.03;;;;;;;2.70;96.87;98720.72;4945346;28;20213;-84
2023/03/07 06:24:24;;;;;;;3.70;2.80;;;;;;;2.66;96.99;98725.34;4951579;28;20220;-83
2023/03/07 06:26:51;;;;;;;3.33;2.60;;;;;;;2.64;97.20;98724.59;4952385;28;20206;-83
2023/03/07 06:29:18;;;;;;;3.30;2.37;;;;;;;2.61;97.29;98729.19;4950379;28;20208;-83
2023/03/07 06:31:44;;;;;;;5.30;3.03;;;;;;;2.58;97.32;98737.25;4948071;28;20302;-85
2023/03/07 06:34:11;;;;;;;4.03;3.27;;;;;;;2.55;97.50;98732.19;4953024;28;20614;-84
2023/03/07 06:36:37;;;;;;;4.37;3.20;;;;;;;2.53;97.94;98727.03;4952817;28;20328;-84
2023/03/07 06:39:04;;;;;;;3.67;3.00;;;;;;;2.53;97.60;98734.06;4951807;28;20224;-83
2023/03/07 06:41:30;;;;;;;4.30;3.20;;;;;;;2.50;97.91;98727.22;4949532;28;20208;-83
2023/03/07 06:43:58;;;;;;;5.53;3.30;;;;;;;2.51;98.85;98730.72;4951359;28;20236;-83
2023/03/07 06:46:25;;;;;;;4.10;3.00;;;;;;;2.52;98.99;98733.22;4944876;28;20221;-83
2023/03/07 06:48:51;;;;;;;4.17;2.70;;;;;;;2.53;98.20;98732.28;4951027;28;20216;-83
2023/03/07 06:51:18;;;;;;;3.97;2.63;;;;;;;2.54;98.36;98733.97;4942595;28;20881;-83
2023/03/07 06:53:44;;;;;;;4.20;3.07;;;;;;;2.55;98.57;98738.28;4951547;28;20219;-83
2023/03/07 06:56:11;;;;;;;3.60;2.20;;;;;;;2.57;98.84;98739.03;4949585;28;20236;-83
2023/03/07 06:58:37;;;;;;;3.93;2.50;;;;;;;2.59;98.97;98739.78;4947485;28;20206;-84
2023/03/07 07:01:05;;;;;;;3.23;2.30;;;;;;;2.60;99.34;98732.75;4952896;28;20205;-83
2023/03/07 07:03:32;;;;;;;3.33;2.40;;;;;;;2.63;99.52;98737.81;4953673;28;20216;-83
2023/03/07 07:05:58;;;;;;;5.77;2.67;;;;;;;2.64;99.58;98736.88;4952264;28;20222;-86
2023/03/07 07:08:24;;;;;;;3.23;2.50;;;;;;;2.63;100.00;98733.41;4951603;28;20571;-86
2023/03/07 07:10:51;;;;;;;4.70;2.90;;;;;;;2.62;99.47;98741.41;4952553;28;20838;-86
2023/03/07 07:13:17;;;;;;;3.80;2.47;;;;;;;2.61;100.00;98731.81;4950705;28;20229;-84
2023/03/07 07:15:44;;;;;;;3.37;2.33;;;;;;;2.61;100.00;98739.69;4945895;28;20236;-83
2023/03/07 07:18:13;;;;;;;6.07;2.80;;;;;;;2.59;99.56;98739.78;4947979;28;20593;-85
2023/03/07 07:20:40;;;;;;;4.87;3.20;;;;;;;2.60;100.00;98745.91;4950733;28;20240;-83
2023/03/07 07:23:06;;;;;;;4.07;3.23;;;;;;;2.57;99.76;98739.03;4939098;28;20201;-84
2023/03/07 07:25:33;;;;;;;4.70;3.27;;;;;;;2.56;100.00;98745.22;4949006;28;20229;-83
2023/03/07 07:27:59;;;;;;;4.87;2.83;;;;;;;2.56;100.00;98737.34;4948867;28;20872;-84
2023/03/07 07:30:25;;;;;;;4.27;2.80;;;;;;;2.57;99.72;98740.81;4948012;28;20573;-82
2023/03/07 07:32:52;;;;;;;3.77;2.40;;;;;;;2.57;100.00;98744.28;4946273;28;20293;-83
2023/03/07 07:35:20;;;;;;;3.43;2.40;;;;;;;2.57;100.00;98733.78;4951165;28;20228;-83
2023/03/07 07:37:46;;;;;;;5.37;2.47;;;;;;;2.56;100.00;98734.72;4943041;28;20232;-83
2023/03/07 07:40:14;;;;;;;5.70;3.03;;;;;;;2.55;100.00;98733.03;4949360;28;20228;-83
2023/03/07 07:42:42;;;;;;;5.77;3.27;;;;;;;2.56;100.00;98726.00;4952755;28;20705;-84
2023/03/07 07:45:09;;;;;;;5.17;1.67;;;;;;;2.55;100.00;98722.50;4949633;28;20257;-83
2023/03/07 07:47:35;;;;;;;5.27;2.43;;;;;;;2.55;99.87;98729.56;4948637;28;20201;-83
2023/03/07 07:50:02;;;;;;;3.70;2.37;;;;;;;2.56;100.00;98732.09;4944592;28;20407;-84
2023/03/07 07:52:29;;;;;;;5.90;2.63;;;;;;;2.57;99.92;98732.94;4948445;28;20209;-83
2023/03/07 07:54:56;;;;;;;3.00;2.27;;;;;;;2.58;100.00;98732.00;4950036;28;20232;-85
2023/03/07 07:57:22;;;;;;;3.47;2.50;;;;;;;2.57;100.00;98730.31;4948629;28;20236;-84
2023/03/07 07:59:49;;;;;;;3.50;2.33;;;;;;;2.57;99.84;98733.78;4940505;28;20209;-83
2023/03/07 08:02:15;;;;;;;4.17;3.63;;;;;;;2.58;100.00;98738.09;4952731;28;20205;-83
2023/03/07 08:04:42;;;;;;;7.07;5.83;;;;;;;2.57;99.93;98728.53;4952915;28;20228;-83
2023/03/07 08:07:08;;;;;;;4.57;2.60;;;;;;;2.57;100.00;98735.56;4948602;28;20198;-83
2023/03/07 08:09:37;;;;;;;6.43;3.93;;;;;;;2.56;100.00;98737.34;4950436;28;20205;-84
2023/03/07 08:12:04;;;;;;;5.43;2.87;;;;;;;2.55;100.00;98733.03;4944350;28;20216;-83
2023/03/07 08:14:33;;;;;;;4.57;3.33;;;;;;;2.54;100.00;98728.72;4954498;28;20216;-84
2023/03/07 08:16:59;;;;;;;5.07;3.30;;;;;;;2.54;99.64;98735.75;4949663;28;20237;-84
2023/03/07 08:19:26;;;;;;;5.10;3.30;;;;;;;2.51;100.00;98734.16;4947164;28;20210;-84
2023/03/07 08:21:52;;;;;;;4.33;3.63;;;;;;;2.48;100.00;98729.09;4954196;28;20204;-83
2023/03/07 08:24:19;;;;;;;4.37;2.90;;;;;;;2.47;99.80;98734.44;4946001;28;20209;-82
2023/03/07 08:26:46;;;;;;;5.20;3.00;;;;;;;2.44;100.00;98738.94;4953442;28;20208;-83
2023/03/07 08:29:13;;;;;;;4.90;2.90;;;;;;;2.43;100.00;98741.66;4952595;28;20594;-83
2023/03/07 08:31:43;;;;;;;3.37;2.90;;;;;;;2.40;99.96;98744.47;4949181;28;20228;-83
2023/03/07 08:34:10;;;;;;;5.13;2.90;;;;;;;2.35;99.17;98738.63;4945952;28;20228;-82
2023/03/07 08:36:37;;;;;;;5.60;2.93;;;;;;;2.30;99.33;98744.19;4952834;28;20683;-83
2023/03/07 08:39:04;;;;;;;5.27;3.67;;;;;;;2.29;99.13;98746.91;4950176;28;20225;-83
2023/03/07 08:41:30;;;;;;;7.03;3.70;;;;;;;2.28;99.57;98743.44;4953506;28;20205;-83
2023/03/07 08:43:58;;;;;;;5.13;2.63;;;;;;;2.26;99.00;98741.84;4947296;28;20208;-83
2023/03/07 08:46:24;;;;;;;2.70;1.50;;;;;;;2.24;99.82;98751.59;4952170;28;20228;-83
2023/03/07 08:48:51;;;;;;;3.23;1.73;;;;;;;2.21;98.90;98751.75;4950895;28;20205;-83
2023/03/07 08:51:19;;;;;;;2.83;1.40;;;;;;;2.17;99.48;98753.72;4954917;28;20205;-83
2023/03/07 08:53:46;;;;;;;3.67;1.50;;;;;;;2.17;98.93;98760.75;4952809;28;20212;-83
2023/03/07 08:56:14;;;;;;;2.20;1.00;;;;;;;2.14;99.05;98758.34;4951295;28;20303;-82
2023/03/07 08:58:42;;;;;;;1.87;1.30;;;;;;;2.09;99.57;98755.97;4956691;28;20264;-82
2023/03/07 09:01:11;;;;;;;2.43;1.30;;;;;;;2.07;99.73;98758.69;4951052;28;20686;-83
2023/03/07 09:03:38;;;;;;;3.03;1.90;;;;;;;2.08;99.66;98755.13;4948365;28;20264;-83
2023/03/07 09:06:05;;;;;;;2.50;1.40;;;;;;;2.09;99.98;98758.59;4952677;28;20239;-83
2023/03/07 09:08:32;;;;;;;2.90;1.20;;;;;;;2.07;99.81;98765.72;4952612;28;20205;-84
2023/03/07 09:11:02;;;;;;;2.60;1.70;;;;;;;2.05;99.75;98760.56;4953239;28;20205;-83
2023/03/07 09:13:28;;;;;;;1.60;1.10;;;;;;;2.03;99.98;98769.44;4950031;28;20212;-82
2023/03/07 09:15:55;;;;;;;4.10;1.70;;;;;;;2.00;99.14;98757.34;4951573;28;20236;-83
2023/03/07 09:18:23;;;;;;;1.73;1.00;;;;;;;1.98;99.67;98761.84;4949560;28;20225;-83
2023/03/07 09:20:49;;;;;;;2.13;1.67;;;;;;;1.95;99.72;98754.16;4946160;28;20239;-83
2023/03/07 09:23:15;;;;;;;3.47;1.47;;;;;;;1.95;99.39;98755.94;4950357;28;20721;-82
2023/03/07 09:25:43;;;;;;;4.27;2.90;;;;;;;1.92;100.00;98749.09;4953253;28;20832;-83
2023/03/07 09:28:09;;;;;;;3.60;2.13;;;;;;;1.94;100.00;98755.09;4950694;28;20292;-84
2023/03/07 09:30:37;;;;;;;3.57;2.30;;;;;;;1.97;99.54;98752.25;4953211;28;20205;-83
2023/03/07 09:33:04;;;;;;;4.30;1.30;;;;;;;1.95;100.00;98748.91;4950540;28;20209;-83
2023/03/07 09:35:31;;;;;;;2.13;1.30;;;;;;;1.98;100.00;98750.47;4952999;28;20714;-83
2023/03/07 09:37:58;;;;;;;4.27;2.00;;;;;;;2.02;100.00;98750.22;4953033;28;20591;-83
2023/03/07 09:40:27;;;;;;;2.00;1.40;;;;;;;2.05;100.00;98750.06;4950866;28;20211;-83
2023/03/07 09:43:05;;;;;;;2.00;1.10;;;;;;;2.07;100.00;98750.81;4948051;28;20201;-83
2023/03/07 09:45:43;;;;;;;2.10;1.07;;;;;;;2.08;100.00;98754.28;4951115;28;20220;-83
2023/03/07 09:48:39;;;;;;;2.63;1.37;;;;;;;2.07;100.00;98750.81;4949287;28;20667;-83
2023/03/07 09:51:15;;;;;;;1.77;1.20;;;;;;;2.07;100.00;98750.81;4949781;28;20204;-83
2023/03/07 09:53:44;;;;;;;4.27;1.10;;;;;;;2.07;100.00;98753.44;4947180;28;20660;-84
2023/03/07 09:56:16;;;;;;;1.93;1.10;;;;;;;2.12;100.00;98760.19;4954708;28;20738;-84
2023/03/07 09:58:47;;;;;;;1.57;1.13;;;;;;;2.12;100.00;98754.94;4948693;28;20228;-83
2023/03/07 10:01:15;;;;;;;2.03;1.00;;;;;;;2.11;100.00;98758.50;4949484;28;20205;-83
2023/03/07 10:03:51;;;;;;;1.10;1.00;;;;;;;2.12;100.00;98754.94;4957167;28;20241;-82
2023/03/07 10:06:25;;;;;;;1.43;0.80;;;;;;;2.12;100.00;98761.03;4950655;28;20244;-83
2023/03/07 10:08:53;;;;;;;2.10;1.30;;;;;;;2.11;100.00;98755.88;4955988;28;20200;-83
2023/03/07 10:11:28;;;;;;;3.57;1.40;;;;;;;2.08;100.00;98749.03;4953686;28;20691;-83
2023/03/07 10:14:08;;;;;;;3.00;1.10;;;;;;;2.06;100.00;98750.91;4947294;28;20213;-85
2023/03/07 10:16:43;;;;;;;2.73;1.43;;;;;;;2.02;100.00;98752.84;4953043;28;20225;-85
2023/03/07 10:19:14;;;;;;;3.67;1.47;;;;;;;2.00;100.00;98754.72;4951106;28;20236;-84
2023/03/07 10:21:52;;;;;;;3.70;1.23;;;;;;;2.00;100.00;98759.13;4953550;28;20651;-84
2023/03/07 10:24:36;;;;;;;3.00;1.30;;;;;;;1.98;100.00;98766.25;4950588;28;20786;-84
2023/03/07 10:27:06;;;;;;;2.13;1.37;;;;;;;1.95;100.00;98764.66;4953362;28;20205;-84
2023/03/07 10:29:40;;;;;;;1.97;1.43;;;;;;;1.91;100.00;98757.91;4949378;28;20322;-84
2023/03/07 10:32:19;;;;;;;2.60;1.03;;;;;;;1.88;100.00;98763.31;4948047;28;20204;-84
2023/03/07 10:34:47;;;;;;;3.87;1.80;;;;;;;1.83;100.00;98765.34;4942299;28;20237;-83
2023/03/07 10:37:18;;;;;;;3.63;2.00;;;;;;;1.79;99.77;98768.28;4952474;28;20233;-83
2023/03/07 10:39:49;;;;;;;2.47;1.50;;;;;;;1.74;100.00;98760.66;4941955;28;20212;-83
2023/03/07 10:42:19;;;;;;;2.93;1.70;;;;;;;1.70;99.73;98769.63;4949446;28;20580;-84
2023/03/07 10:44:47;;;;;;;2.43;1.30;;;;;;;1.67;99.96;98762.78;4953766;28;20263;-83
2023/03/07 10:47:19;;;;;;;1.57;0.97;;;;;;;1.61;99.89;98763.09;4948472;28;20212;-83
2023/03/07 10:49:47;;;;;;;1.50;1.10;;;;;;;1.60;100.00;98768.47;4950348;28;20205;-84
2023/03/07 10:52:29;;;;;;;1.93;1.77;;;;;;;1.58;99.70;98759.84;4945536;28;20208;-85
2023/03/07 10:55:12;;;;;;;1.50;1.13;;;;;;;1.55;100.00;98770.50;4951653;28;20920;-85
2023/03/07 10:57:38;;;;;;;3.13;1.00;;;;;;;1.54;99.83;98768.81;4946955;28;20232;-84
2023/03/07 11:00:15;;;;;;;2.03;0.90;;;;;;;1.52;100.00;98766.28;4946690;28;20210;-83
2023/03/07 11:02:44;;;;;;;1.83;0.80;;;;;;;1.50;100.00;98769.91;4950310;28;20204;-84
2023/03/07 11:05:27;;;;;;;2.97;1.87;;;;;;;1.48;100.00;98766.53;4946211;28;20225;-84
2023/03/07 11:07:55;;;;;;;3.00;1.00;;;;;;;1.47;99.81;98763.03;4949705;28;20271;-84
2023/03/07 11:10:31;;;;;;;1.67;1.10;;;;;;;1.45;100.00;98767.53;4954848;28;20209;-83
2023/03/07 11:12:58;;;;;;;1.20;1.10;;;;;;;1.46;100.00;98760.50;4947160;28;20280;-83
2023/03/07 11:15:26;;;;;;;2.20;1.37;;;;;;;1.45;100.00;98751.78;4947850;28;20235;-85
2023/03/07 11:17:53;;;;;;;3.17;2.17;;;;;;;1.46;100.00;98755.25;4954596;28;20233;-83
2023/03/07 11:20:23;;;;;;;1.77;1.63;;;;;;;1.46;100.00;98755.25;4950924;28;20220;-83
2023/03/07 11:23:11;;;;;;;1.30;1.20;;;;;;;1.46;100.00;98763.13;4942398;28;20212;-83
2023/03/07 11:25:39;;;;;;;2.17;1.70;;;;;;;1.44;100.00;98754.50;4945244;28;20231;-83
2023/03/07 11:28:25;;;;;;;19.50;10.03;;;;;;;1.44;100.00;98759.75;4952039;28;20205;-83
2023/03/07 11:30:53;;;;;;;4.90;3.47;;;;;;;1.44;100.00;98763.22;4947698;28;20224;-84
2023/03/07 11:33:26;;;;;;;3.03;1.73;;;;;;;1.47;100.00;98754.34;4946713;28;20205;-84
2023/03/07 11:35:58;;;;;;;5.43;4.77;;;;;;;1.49;100.00;98755.09;4951102;28;20729;-83
2023/03/07 11:38:41;;;;;;;2.50;2.30;;;;;;;1.50;100.00;98754.16;4952000;29;20700;-83